シドニー の空港の天気 - METARとTAF

シドニー国際空港 ( YSSY / SYD ) - オーストラリア ニューサウスウェールズ州、Mascot
飛行場実況気象(Metar)
観測時間01/20 12:30 AEDT (01/20 01:30 UTC)
風向・風速北 5m/s
視程5000m
天気現象強い雨
少しの雲 雲底高度 300m
全天の4割程度の雲 雲底高度 1220m
全天の8割程度の雲 雲底高度 2440m
気温22℃
湿度94%
気圧997hPa
METARYSSY 200130Z 01009KT 5000 +RA FEW010 SCT040 BKN080 22/21 Q0997 FM0145 01010KT 9999 -RA SCT040 INTER 0145/0200 5000 RA SCT010 BKN040 INTER 0200/0423 VRB25G45KT 3000 TSRA FEW015 SCT045CB FM0145 MOD TURB BLW 5000FT
過去の天気等 Google飛行場航空写真 Wunderground天気予報

過去48時間のMETAR

飛行場予報(TAF)
発表時間: 1/20 10:07 AEDT (1/19 23:07 UTC)
予報対象時間: 20日11時 AEDT ~ 21日17時 AEDT
風向・風速北 8m/s
視程10km以上
天気現象弱い雨
少しの雲 雲底高度 610m
全天の8割程度の雲 雲底高度 2,740m
20日15時 AEDT から
風向・風速北北西 9m/s
視程10km以上
天気現象弱いしゅう雨
少しの雲 雲底高度 760m
全天の4割程度の雲 雲底高度 1,220m
20日20時 AEDT から
風向・風速西南西 8m/s
視程10km以上
全天の4割程度の雲 雲底高度 1,220m
20日22時 AEDT から
風向・風速南 10m/s 瞬間風速 15m/s
視程10km以上
少しの雲 雲底高度 460m
全天の4割程度の雲 雲底高度 1,220m
TAF AMD YSSY 192307Z 2000/2106 01015KT 9999 -RA FEW020 BKN090
FM200400 34018KT 9999 -SHRA FEW025 SCT040
FM200900 24015KT 9999 SCT040
FM201100 18020G30KT 9999 FEW015 SCT040
PROB30 INTER 2002/2009 VRB25G45KT 3000 TSRA BKN018 SCT045CB